createdAt,value
2022-11-09T00:00:54.459Z,100623.38
2022-11-09T00:03:21.317Z,100638.19
2022-11-09T00:05:58.241Z,100636.56
2022-11-09T00:08:24.881Z,100634.91
2022-11-09T00:10:51.599Z,100637.34
2022-11-09T00:13:18.378Z,100645.25
2022-11-09T00:15:45.113Z,100645.66
2022-11-09T00:18:11.574Z,100645.25
2022-11-09T00:20:38.048Z,100643.81
2022-11-09T00:23:04.526Z,100652.94
2022-11-09T00:25:31.084Z,100653.13
2022-11-09T00:27:57.618Z,100655.78
2022-11-09T00:30:24.079Z,100659.03
2022-11-09T00:32:50.525Z,100657.00
2022-11-09T00:35:17.121Z,100653.78
2022-11-09T00:37:43.696Z,100657.84
2022-11-09T00:40:11.024Z,100654.00
2022-11-09T00:42:37.510Z,100654.00
2022-11-09T00:45:04.206Z,100650.75
2022-11-09T00:47:30.719Z,100653.56
2022-11-09T00:49:57.163Z,100646.66
2022-11-09T00:52:23.695Z,100646.63
2022-11-09T00:54:50.189Z,100641.75
2022-11-09T00:57:17.175Z,100641.53
2022-11-09T00:59:43.690Z,100633.00
2022-11-09T01:02:10.126Z,100638.88
2022-11-09T01:04:36.748Z,100637.66
2022-11-09T01:07:03.323Z,100630.34
2022-11-09T01:09:29.964Z,100631.75
2022-11-09T01:11:56.421Z,100637.00
2022-11-09T01:14:23.698Z,100632.72
2022-11-09T01:16:50.363Z,100641.06
2022-11-09T01:19:17.187Z,100641.88
2022-11-09T01:21:43.838Z,100648.56
2022-11-09T01:24:10.443Z,100646.75
2022-11-09T01:26:37.553Z,100649.19
2022-11-09T01:29:04.005Z,100656.31
2022-11-09T01:31:30.698Z,100653.69
2022-11-09T01:33:57.132Z,100656.50
2022-11-09T01:36:24.604Z,100662.78
2022-11-09T01:38:51.236Z,100670.91
2022-11-09T01:41:24.585Z,100665.00
2022-11-09T01:44:06.384Z,100661.13
2022-11-09T01:46:59.038Z,100658.88
2022-11-09T01:49:52.870Z,100654.78
2022-11-09T01:52:24.591Z,100658.00
2022-11-09T01:54:58.420Z,100657.78
2022-11-09T01:57:31.736Z,100660.78
2022-11-09T02:00:02.836Z,100667.47
2022-11-09T02:02:29.304Z,100659.13
2022-11-09T02:05:01.307Z,100664.63
2022-11-09T02:07:28.418Z,100663.38
2022-11-09T02:10:07.305Z,100661.19
2022-11-09T02:12:35.319Z,100665.06
2022-11-09T02:15:05.187Z,100671.75
2022-11-09T02:17:32.580Z,100660.25
2022-11-09T02:19:59.063Z,100639.59
2022-11-09T02:22:25.906Z,100639.41
2022-11-09T02:24:56.146Z,100645.66
2022-11-09T02:27:23.341Z,100652.16
2022-11-09T02:29:49.983Z,100652.97
2022-11-09T02:32:20.592Z,100647.88
2022-11-09T02:34:47.072Z,100648.09
2022-11-09T02:37:13.742Z,100659.44
2022-11-09T02:39:40.760Z,100667.97
2022-11-09T02:42:13.006Z,100669.22
2022-11-09T02:44:46.113Z,100672.88
2022-11-09T02:47:12.698Z,100662.75
2022-11-09T02:49:39.134Z,100651.81
2022-11-09T02:52:05.858Z,100660.75
2022-11-09T02:54:32.486Z,100665.22
2022-11-09T02:56:58.978Z,100658.28
2022-11-09T02:59:25.554Z,100661.13
2022-11-09T03:01:52.138Z,100662.56
2022-11-09T03:04:18.608Z,100660.13
2022-11-09T03:06:45.136Z,100665.00
2022-11-09T03:09:12.626Z,100660.34
2022-11-09T03:11:40.786Z,100653.84
2022-11-09T03:14:09.809Z,100655.50
2022-11-09T03:16:39.832Z,100663.59
2022-11-09T03:19:06.911Z,100663.59
2022-11-09T03:21:33.354Z,100666.63
2022-11-09T03:23:59.848Z,100670.88
2022-11-09T03:26:26.517Z,100669.63
2022-11-09T03:28:52.993Z,100673.69
2022-11-09T03:31:19.638Z,100669.38
2022-11-09T03:33:46.166Z,100669.34
2022-11-09T03:36:12.743Z,100672.56
2022-11-09T03:38:39.201Z,100677.25
2022-11-09T03:41:05.716Z,100678.63
2022-11-09T03:43:32.215Z,100677.19
2022-11-09T03:45:58.765Z,100679.19
2022-11-09T03:48:25.359Z,100678.38
2022-11-09T03:50:51.891Z,100685.50
2022-11-09T03:53:18.846Z,100688.94
2022-11-09T03:55:45.707Z,100688.13
2022-11-09T03:58:13.225Z,100689.94
2022-11-09T04:00:39.954Z,100693.38
2022-11-09T04:03:06.369Z,100703.28
2022-11-09T04:05:32.873Z,100709.41
2022-11-09T04:07:59.721Z,100712.03
2022-11-09T04:10:27.369Z,100711.84
2022-11-09T04:12:54.433Z,100719.34
2022-11-09T04:15:21.296Z,100709.84
2022-11-09T04:18:03.618Z,100716.28
2022-11-09T04:20:31.486Z,100719.31
2022-11-09T04:23:03.438Z,100710.78
2022-11-09T04:25:33.541Z,100714.81
2022-11-09T04:28:00.832Z,100715.81
2022-11-09T04:30:29.189Z,100723.72
2022-11-09T04:32:59.635Z,100728.38
2022-11-09T04:35:28.678Z,100733.44
2022-11-09T04:37:56.350Z,100730.00
2022-11-09T04:40:24.530Z,100728.19
2022-11-09T04:42:51.315Z,100727.53
2022-11-09T04:45:18.057Z,100738.91
2022-11-09T04:47:44.470Z,100730.00
2022-11-09T04:50:11.431Z,100730.38
2022-11-09T04:52:37.950Z,100733.66
2022-11-09T04:55:05.637Z,100730.59
2022-11-09T04:57:32.114Z,100741.16
2022-11-09T04:59:58.577Z,100738.50
2022-11-09T05:02:25.009Z,100735.88
2022-11-09T05:04:51.441Z,100736.88
2022-11-09T05:07:18.232Z,100734.47
2022-11-09T05:09:44.677Z,100747.00
2022-11-09T05:12:11.397Z,100734.63
2022-11-09T05:14:37.975Z,100735.66
2022-11-09T05:17:04.516Z,100737.47
2022-11-09T05:19:30.974Z,100739.09
2022-11-09T05:22:17.394Z,100738.66
2022-11-09T05:24:43.913Z,100738.22
2022-11-09T05:27:10.387Z,100751.78
2022-11-09T05:29:36.866Z,100740.44
2022-11-09T05:32:03.409Z,100742.25
2022-11-09T05:34:29.825Z,100740.00
2022-11-09T05:37:00.720Z,100752.53
2022-11-09T05:39:29.719Z,100750.91
2022-11-09T05:41:56.147Z,100754.97
2022-11-09T05:44:22.620Z,100754.97
2022-11-09T05:46:49.155Z,100747.06
2022-11-09T05:49:15.641Z,100750.34
2022-11-09T05:51:42.059Z,100747.72
2022-11-09T05:54:08.847Z,100743.25
2022-11-09T05:56:35.331Z,100741.81
2022-11-09T05:59:01.761Z,100743.63
2022-11-09T06:01:28.246Z,100744.66
2022-11-09T06:03:55.192Z,100744.66
2022-11-09T06:06:21.702Z,100746.63
2022-11-09T06:08:49.951Z,100740.56
2022-11-09T06:11:23.268Z,100747.44
2022-11-09T06:13:50.968Z,100746.47
2022-11-09T06:16:17.383Z,100758.44
2022-11-09T06:18:43.873Z,100760.88
2022-11-09T06:21:10.693Z,100757.00
2022-11-09T06:23:37.271Z,100766.69
2022-11-09T06:26:10.051Z,100766.09
2022-11-09T06:28:38.035Z,100767.28
2022-11-09T06:31:06.921Z,100773.72
2022-11-09T06:33:34.978Z,100778.59
2022-11-09T06:36:02.023Z,100785.63
2022-11-09T06:38:28.748Z,100785.84
2022-11-09T06:40:57.712Z,100789.66
2022-11-09T06:43:25.154Z,100789.84
2022-11-09T06:45:52.305Z,100791.03
2022-11-09T06:48:19.432Z,100787.59
2022-11-09T06:50:46.283Z,100781.69
2022-11-09T06:53:14.888Z,100780.25
2022-11-09T06:55:44.512Z,100792.78
2022-11-09T06:58:15.947Z,100792.34
2022-11-09T07:00:43.578Z,100792.34
2022-11-09T07:03:14.810Z,100791.53
2022-11-09T07:05:41.402Z,100794.31
2022-11-09T07:08:07.873Z,100796.97
2022-11-09T07:10:34.383Z,100805.50
2022-11-09T07:13:03.203Z,100802.88
2022-11-09T07:15:29.989Z,100805.50
2022-11-09T07:17:57.688Z,100807.97
2022-11-09T07:20:24.072Z,100804.13
2022-11-09T07:22:50.939Z,100805.13
2022-11-09T07:25:17.457Z,100806.59
2022-11-09T07:27:44.107Z,100802.75
2022-11-09T07:30:11.179Z,100809.09
2022-11-09T07:33:08.697Z,100807.28
2022-11-09T07:35:26.399Z,100810.41
2022-11-09T07:37:53.165Z,100812.75
2022-11-09T07:40:20.068Z,100810.97
2022-11-09T07:42:46.831Z,100805.31
2022-11-09T07:45:13.369Z,100814.47
2022-11-09T07:47:39.854Z,100810.88
2022-11-09T07:50:06.852Z,100813.13
2022-11-09T07:52:33.298Z,100813.13
2022-11-09T07:54:59.739Z,100820.81
2022-11-09T07:57:26.213Z,100817.19
2022-11-09T07:59:53.665Z,100819.44
2022-11-09T08:02:20.290Z,100826.31
2022-11-09T08:04:46.924Z,100830.19
2022-11-09T08:07:13.454Z,100823.09
2022-11-09T08:09:40.008Z,100825.09
2022-11-09T08:12:06.768Z,100840.53
2022-11-09T08:14:33.667Z,100820.25
2022-11-09T08:17:00.166Z,100825.34
2022-11-09T08:19:26.634Z,100825.16
2022-11-09T08:21:57.355Z,100833.88
2022-11-09T08:24:24.412Z,100836.13
2022-11-09T08:26:50.874Z,100839.00
2022-11-09T08:29:17.551Z,100839.44
2022-11-09T08:31:44.141Z,100840.88
2022-11-09T08:34:13.910Z,100840.50
2022-11-09T08:36:40.429Z,100846.22
2022-11-09T08:39:07.004Z,100844.81
2022-11-09T08:41:33.843Z,100852.97
2022-11-09T08:44:00.513Z,100859.31
2022-11-09T08:46:27.011Z,100855.47
2022-11-09T08:48:53.524Z,100858.72
2022-11-09T08:51:20.038Z,100859.97
2022-11-09T08:53:46.508Z,100858.56
2022-11-09T08:56:13.088Z,100860.66
2022-11-09T08:58:39.763Z,100857.69
2022-11-09T09:01:12.203Z,100859.31
2022-11-09T09:03:41.949Z,100853.66
2022-11-09T09:06:08.906Z,100865.66
2022-11-09T09:08:35.600Z,100864.47
2022-11-09T09:11:05.651Z,100858.81
2022-11-09T09:13:33.439Z,100864.53
2022-11-09T09:16:13.029Z,100869.25
2022-11-09T09:18:39.542Z,100860.34
2022-11-09T09:21:10.753Z,100858.78
2022-11-09T09:23:37.233Z,100861.25
2022-11-09T09:26:04.269Z,100864.13
2022-11-09T09:28:30.814Z,100866.00
2022-11-09T09:30:59.709Z,100866.59
2022-11-09T09:33:27.123Z,100873.13
2022-11-09T09:35:58.031Z,100867.03
2022-11-09T09:38:25.964Z,100866.03
2022-11-09T09:41:01.536Z,100862.22
2022-11-09T09:43:38.348Z,100870.75
2022-11-09T09:46:20.086Z,100876.47
2022-11-09T09:48:53.202Z,100881.97
2022-11-09T09:51:28.578Z,100881.78
2022-11-09T09:54:06.871Z,100890.94
2022-11-09T09:56:41.040Z,100880.78
2022-11-09T09:59:14.660Z,100867.75
2022-11-09T10:01:44.302Z,100884.00
2022-11-09T10:04:40.841Z,100893.56
2022-11-09T10:07:17.611Z,100901.94
2022-11-09T10:09:46.917Z,100908.22
2022-11-09T10:12:59.118Z,100898.25
2022-11-09T10:15:39.391Z,100901.94
2022-11-09T10:18:34.933Z,100899.09
2022-11-09T10:21:32.580Z,100904.00
2022-11-09T10:25:12.871Z,100909.66
2022-11-09T10:27:36.840Z,100908.44
2022-11-09T10:30:14.989Z,100905.00
2022-11-09T10:32:45.247Z,100903.78
2022-11-09T10:35:22.431Z,100913.78
2022-11-09T10:37:52.214Z,100916.00
2022-11-09T10:40:30.315Z,100910.31
2022-11-09T10:43:06.031Z,100897.69
2022-11-09T10:45:37.859Z,100914.97
2022-11-09T10:48:06.377Z,100907.25
2022-11-09T10:50:39.998Z,100906.78
2022-11-09T10:53:19.187Z,100912.72
2022-11-09T10:55:55.001Z,100907.81
2022-11-09T10:58:39.218Z,100910.88
2022-11-09T11:01:23.130Z,100907.81
2022-11-09T11:03:51.863Z,100898.03
2022-11-09T11:06:27.857Z,100909.88
2022-11-09T11:09:06.251Z,100899.47
2022-11-09T11:11:36.423Z,100905.19
2022-11-09T11:14:17.137Z,100902.13
2022-11-09T11:16:48.424Z,100910.25
2022-11-09T11:19:33.835Z,100911.91
2022-11-09T11:22:11.953Z,100898.66
2022-11-09T11:25:03.236Z,100901.94
2022-11-09T11:27:32.596Z,100896.44
2022-11-09T11:30:05.588Z,100898.06
2022-11-09T11:32:32.824Z,100893.59
2022-11-09T11:35:01.092Z,100908.22
2022-11-09T11:37:37.884Z,100905.63
2022-11-09T11:40:15.063Z,100897.88
2022-11-09T11:42:55.865Z,100900.72
2022-11-09T11:45:41.531Z,100905.44
2022-11-09T11:48:27.305Z,100896.06
2022-11-09T11:51:13.397Z,100905.63
2022-11-09T11:53:43.389Z,100918.66
2022-11-09T11:56:26.142Z,100920.06
2022-11-09T11:59:19.918Z,100939.81
2022-11-09T12:02:11.086Z,100961.13
2022-11-09T12:05:08.816Z,100916.53
2022-11-09T12:07:42.788Z,100913.84
2022-11-09T12:10:28.624Z,100959.97
2022-11-09T12:13:16.914Z,100939.84
2022-11-09T12:15:49.518Z,100928.69
2022-11-09T12:18:35.357Z,100933.16
2022-11-09T12:21:27.459Z,100935.00
2022-11-09T12:24:17.842Z,100941.31
2022-11-09T12:27:25.640Z,100943.16
2022-11-09T12:30:03.080Z,100931.38
2022-11-09T12:32:55.384Z,100938.72
2022-11-09T12:35:56.585Z,100928.78
2022-11-09T12:38:29.089Z,100931.22
2022-11-09T12:41:05.234Z,100932.84
2022-11-09T12:43:34.755Z,100931.22
2022-11-09T12:46:04.416Z,100934.25
2022-11-09T12:48:35.479Z,100931.44
2022-11-09T12:51:04.881Z,100929.19
2022-11-09T12:53:39.040Z,100930.00
2022-11-09T12:56:10.615Z,100940.16
2022-11-09T12:58:39.476Z,100942.41
2022-11-09T13:01:11.267Z,100951.00
2022-11-09T13:03:40.873Z,100942.44
2022-11-09T13:06:13.361Z,100943.06
2022-11-09T13:08:41.783Z,100943.63
2022-11-09T13:11:09.949Z,100936.91
2022-11-09T13:13:36.750Z,100944.06
2022-11-09T13:16:30.257Z,100945.69
2022-11-09T13:18:56.742Z,100954.66
2022-11-09T13:21:23.111Z,100964.84
2022-11-09T13:24:10.396Z,100961.97
2022-11-09T13:26:37.416Z,100966.47
2022-11-09T13:29:06.858Z,100969.94
2022-11-09T13:32:09.016Z,100976.00
2022-11-09T13:34:57.584Z,100983.72
2022-11-09T13:37:41.819Z,100991.03
2022-11-09T13:40:33.024Z,100997.13
2022-11-09T13:43:08.763Z,100995.94
2022-11-09T13:45:38.399Z,100993.53
2022-11-09T13:48:06.724Z,100997.41
2022-11-09T13:50:34.985Z,101002.31
2022-11-09T13:53:02.193Z,100992.31
2022-11-09T13:55:39.320Z,100993.34
2022-11-09T13:58:23.640Z,100992.34
2022-11-09T14:00:50.192Z,100996.81
2022-11-09T14:03:25.987Z,100994.97
2022-11-09T14:05:56.176Z,101009.63
2022-11-09T14:08:28.034Z,101006.19
2022-11-09T14:11:16.423Z,101011.06
2022-11-09T14:13:51.119Z,101008.63
2022-11-09T14:16:37.593Z,101013.50
2022-11-09T14:19:42.842Z,101010.03
2022-11-09T14:22:16.251Z,101018.78
2022-11-09T14:24:43.579Z,101026.91
2022-11-09T14:27:09.984Z,101030.34
2022-11-09T14:29:46.736Z,101028.31
2022-11-09T14:32:36.901Z,101042.34
2022-11-09T14:35:35.078Z,101048.81
2022-11-09T14:38:14.961Z,101051.47
2022-11-09T14:40:45.838Z,101057.56
2022-11-09T14:43:30.542Z,101060.22
2022-11-09T14:46:12.588Z,101062.22
2022-11-09T14:48:43.298Z,101058.19
2022-11-09T14:51:14.570Z,101058.56
2022-11-09T14:53:42.742Z,101064.25
2022-11-09T14:56:13.780Z,101068.09
2022-11-09T14:58:43.927Z,101062.81
2022-11-09T15:01:23.848Z,101067.47
2022-11-09T15:04:22.737Z,101061.75
2022-11-09T15:06:52.425Z,101076.16
2022-11-09T15:09:21.780Z,101068.66
2022-11-09T15:11:49.267Z,101081.88
2022-11-09T15:14:27.863Z,101091.81
2022-11-09T15:17:17.036Z,101101.53
2022-11-09T15:19:58.241Z,101107.00
2022-11-09T15:22:37.090Z,101099.78
2022-11-09T15:25:24.655Z,101115.00
2022-11-09T15:27:59.276Z,101119.41
2022-11-09T15:30:31.767Z,101116.72
2022-11-09T15:32:58.293Z,101113.84
2022-11-09T15:35:25.349Z,101116.88
2022-11-09T15:37:53.742Z,101115.63
2022-11-09T15:40:22.964Z,101117.63
2022-11-09T15:42:49.436Z,101117.81
2022-11-09T15:45:19.717Z,101114.16
2022-11-09T15:47:52.576Z,101119.44
2022-11-09T15:50:22.790Z,101130.00
2022-11-09T15:52:49.919Z,101136.09
2022-11-09T15:55:22.201Z,101136.50
2022-11-09T15:57:50.145Z,101149.06
2022-11-09T16:00:20.969Z,101143.72
2022-11-09T16:02:48.530Z,101152.03
2022-11-09T16:05:15.839Z,101159.34
2022-11-09T16:07:49.880Z,101159.50
2022-11-09T16:10:17.779Z,101160.72
2022-11-09T16:12:46.461Z,101169.00
2022-11-09T16:15:13.434Z,101175.69
2022-11-09T16:17:40.090Z,101177.50
2022-11-09T16:20:07.381Z,101181.94
2022-11-09T16:22:34.132Z,101179.50
2022-11-09T16:25:00.665Z,101182.78
2022-11-09T16:27:49.029Z,101184.41
2022-11-09T16:30:14.960Z,101193.34
2022-11-09T16:32:41.624Z,101204.72
2022-11-09T16:35:25.979Z,101203.91
2022-11-09T16:37:55.250Z,101212.19
2022-11-09T16:40:22.830Z,101211.38
2022-11-09T16:42:51.588Z,101208.09
2022-11-09T16:45:18.035Z,101215.19
2022-11-09T16:47:48.997Z,101227.38
2022-11-09T16:50:15.861Z,101237.13
2022-11-09T16:52:43.140Z,101239.75
2022-11-09T16:55:10.212Z,101245.03
2022-11-09T16:57:37.175Z,101246.88
2022-11-09T17:00:05.824Z,101256.75
2022-11-09T17:02:32.399Z,101253.28
2022-11-09T17:04:58.905Z,101257.97
2022-11-09T17:07:25.672Z,101255.69
2022-11-09T17:09:52.104Z,101271.06
2022-11-09T17:12:18.607Z,101275.09
2022-11-09T17:14:45.040Z,101270.38
2022-11-09T17:17:11.537Z,101276.00
2022-11-09T17:19:38.259Z,101274.53
2022-11-09T17:22:04.740Z,101280.00
2022-11-09T17:24:31.715Z,101290.72
2022-11-09T17:26:58.491Z,101306.56
2022-11-09T17:29:25.057Z,101300.03
2022-11-09T17:31:51.608Z,101308.13
2022-11-09T17:34:18.359Z,101309.31
2022-11-09T17:39:31.561Z,101319.59
2022-11-09T17:41:58.012Z,101332.59
2022-11-09T17:44:24.751Z,101331.56
2022-11-09T17:46:51.163Z,101331.78
2022-11-09T17:49:17.622Z,101327.31
2022-11-09T17:51:44.371Z,101334.88
2022-11-09T17:54:10.867Z,101342.59
2022-11-09T17:56:37.365Z,101339.13
2022-11-09T17:59:05.424Z,101348.88
2022-11-09T18:01:36.442Z,101351.03
2022-11-09T18:04:06.863Z,101356.13
2022-11-09T18:06:33.953Z,101354.34
2022-11-09T18:09:34.242Z,101363.88
2022-11-09T18:11:47.767Z,101372.59
2022-11-09T18:14:15.809Z,101373.44
2022-11-09T18:16:42.876Z,101386.25
2022-11-09T18:19:09.297Z,101381.78
2022-11-09T18:21:35.742Z,101384.44
2022-11-09T18:24:02.367Z,101388.25
2022-11-09T18:26:31.222Z,101388.78
2022-11-09T18:28:57.895Z,101401.72
2022-11-09T18:31:24.565Z,101402.88
2022-11-09T18:33:53.914Z,101402.22
2022-11-09T18:36:21.685Z,101411.16
2022-11-09T18:38:51.109Z,101407.06
2022-11-09T18:41:20.484Z,101406.88
2022-11-09T18:43:47.135Z,101423.31
2022-11-09T18:46:16.060Z,101420.69
2022-11-09T18:48:42.976Z,101425.34
2022-11-09T18:51:10.713Z,101422.69
2022-11-09T18:53:42.567Z,101435.88
2022-11-09T18:56:19.069Z,101434.25
2022-11-09T18:58:46.402Z,101443.34
2022-11-09T19:01:13.643Z,101435.78
2022-11-09T19:03:40.462Z,101437.78
2022-11-09T19:06:15.674Z,101436.94
2022-11-09T19:09:01.889Z,101448.69
2022-11-09T19:11:29.967Z,101457.41
2022-11-09T19:13:56.477Z,101460.84
2022-11-09T19:16:24.087Z,101461.50
2022-11-09T19:18:50.637Z,101465.31
2022-11-09T19:21:35.682Z,101471.75
2022-11-09T19:24:02.528Z,101471.13
2022-11-09T19:26:29.396Z,101475.75
2022-11-09T19:28:55.878Z,101477.75
2022-11-09T19:31:25.824Z,101481.19
2022-11-09T19:33:52.653Z,101484.00
2022-11-09T19:36:30.301Z,101490.94
2022-11-09T19:38:57.475Z,101495.34
2022-11-09T19:41:25.260Z,101499.00
2022-11-09T19:43:54.638Z,101497.03
2022-11-09T19:46:22.038Z,101501.41
2022-11-09T19:48:48.684Z,101504.53
2022-11-09T19:51:16.514Z,101523.50
2022-11-09T19:53:52.583Z,101530.28
2022-11-09T19:56:20.858Z,101528.16
2022-11-09T19:58:52.539Z,101535.59
2022-11-09T20:01:19.585Z,101540.38
2022-11-09T20:03:54.483Z,101545.19
2022-11-09T20:06:22.461Z,101537.47
2022-11-09T20:08:49.510Z,101547.19
2022-11-09T20:11:36.673Z,101543.72
2022-11-09T20:14:07.827Z,101551.78
2022-11-09T20:16:35.804Z,101563.50
2022-11-09T20:19:03.856Z,101567.91
2022-11-09T20:21:30.404Z,101569.94
2022-11-09T20:23:57.046Z,101571.88
2022-11-09T20:26:23.832Z,101580.97
2022-11-09T20:28:52.449Z,101576.03
2022-11-09T20:31:19.774Z,101584.44
2022-11-09T20:33:46.362Z,101588.88
2022-11-09T20:36:12.859Z,101588.88
2022-11-09T20:38:39.875Z,101592.19
2022-11-09T20:41:10.126Z,101586.25
2022-11-09T20:43:37.248Z,101608.50
2022-11-09T20:46:05.925Z,101602.56
2022-11-09T20:49:02.791Z,101602.88
2022-11-09T20:51:19.856Z,101605.84
2022-11-09T20:53:47.452Z,101611.47
2022-11-09T20:56:14.540Z,101610.63
2022-11-09T20:58:41.665Z,101609.16
2022-11-09T21:01:20.815Z,101615.44
2022-11-09T21:03:48.917Z,101618.22
2022-11-09T21:06:15.488Z,101620.03
2022-11-09T21:08:46.506Z,101622.81
2022-11-09T21:11:13.150Z,101631.19
2022-11-09T21:13:42.114Z,101631.34
2022-11-09T21:16:13.914Z,101635.94
2022-11-09T21:18:41.688Z,101638.75
2022-11-09T21:21:11.406Z,101635.63
2022-11-09T21:23:58.178Z,101642.88
2022-11-09T21:26:43.479Z,101639.91
2022-11-09T21:29:30.858Z,101642.53
2022-11-09T21:31:57.697Z,101646.00
2022-11-09T21:34:24.334Z,101649.78
2022-11-09T21:36:51.088Z,101650.75
2022-11-09T21:39:17.782Z,101654.22
2022-11-09T21:41:44.472Z,101651.75
2022-11-09T21:44:12.067Z,101655.22
2022-11-09T21:46:40.121Z,101656.19
2022-11-09T21:49:07.886Z,101652.75
2022-11-09T21:51:35.695Z,101661.63
2022-11-09T21:54:03.060Z,101663.44
2022-11-09T21:56:29.570Z,101656.34
2022-11-09T21:58:56.000Z,101661.63
2022-11-09T22:01:22.925Z,101665.25
2022-11-09T22:03:50.542Z,101674.94
2022-11-09T22:06:17.222Z,101680.22
2022-11-09T22:08:44.804Z,101694.38
2022-11-09T22:11:42.015Z,101694.00
2022-11-09T22:14:35.357Z,101698.97
2022-11-09T22:17:05.167Z,101710.16
2022-11-09T22:19:50.148Z,101704.06
2022-11-09T22:22:16.607Z,101704.91
2022-11-09T22:24:43.168Z,101711.28
2022-11-09T22:27:09.932Z,101710.97
2022-11-09T22:29:36.734Z,101712.13
2022-11-09T22:32:04.118Z,101717.69
2022-11-09T22:34:30.609Z,101713.75
2022-11-09T22:36:57.316Z,101717.38
2022-11-09T22:39:23.804Z,101717.00
2022-11-09T22:41:50.233Z,101724.06
2022-11-09T22:44:16.725Z,101720.81
2022-11-09T22:46:43.118Z,101733.28
2022-11-09T22:49:10.294Z,101725.56
2022-11-09T22:51:36.832Z,101728.50
2022-11-09T22:54:03.498Z,101735.72
2022-11-09T22:56:29.993Z,101739.19
2022-11-09T22:58:56.448Z,101741.97
2022-11-09T23:01:23.146Z,101745.59
2022-11-09T23:03:49.592Z,101752.66
2022-11-09T23:06:21.536Z,101756.59
2022-11-09T23:08:48.163Z,101772.53
2022-11-09T23:11:20.598Z,101770.19
2022-11-09T23:13:52.162Z,101784.03
2022-11-09T23:16:19.046Z,101782.91
2022-11-09T23:18:55.101Z,101792.78
2022-11-09T23:21:21.516Z,101787.06
2022-11-09T23:23:48.703Z,101794.78
2022-11-09T23:26:15.535Z,101784.75
2022-11-09T23:28:44.925Z,101790.84
2022-11-09T23:31:14.298Z,101795.94
2022-11-09T23:33:41.111Z,101795.94
2022-11-09T23:36:08.371Z,101802.19
2022-11-09T23:38:37.251Z,101801.69
2022-11-09T23:41:05.601Z,101796.09
2022-11-09T23:43:32.137Z,101800.97
2022-11-09T23:46:07.114Z,101800.00
2022-11-09T23:48:33.625Z,101800.44
2022-11-09T23:51:01.629Z,101813.75
2022-11-09T23:53:29.675Z,101827.91
2022-11-09T23:56:05.373Z,101821.94
2022-11-09T23:58:31.874Z,101820.31
